createdAt,value
2023-02-14T00:01:07.484Z,-0.08
2023-02-14T00:03:34.315Z,0.18
2023-02-14T00:06:08.207Z,0.16
2023-02-14T00:08:35.043Z,0.10
2023-02-14T00:11:01.721Z,0.32
2023-02-14T00:13:28.317Z,0.45
2023-02-14T00:15:55.578Z,0.29
2023-02-14T00:18:22.176Z,0.20
2023-02-14T00:20:48.755Z,0.21
2023-02-14T00:23:15.353Z,0.12
2023-02-14T00:25:41.900Z,0.24
2023-02-14T00:28:08.458Z,0.25
2023-02-14T00:30:35.175Z,0.31
2023-02-14T00:33:04.750Z,0.24
2023-02-14T00:35:31.339Z,0.31
2023-02-14T00:37:57.925Z,0.39
2023-02-14T00:40:24.544Z,0.08
2023-02-14T00:42:51.153Z,0.08
2023-02-14T00:45:19.090Z,0.13
2023-02-14T00:47:45.657Z,0.00
2023-02-14T00:50:12.325Z,-0.08
2023-02-14T00:52:38.890Z,-0.04
2023-02-14T00:55:05.714Z,0.00
2023-02-14T00:57:32.288Z,-0.11
2023-02-14T00:59:58.880Z,0.04
2023-02-14T01:02:26.752Z,-0.03
2023-02-14T01:04:53.379Z,-0.16
2023-02-14T01:07:22.681Z,-0.23
2023-02-14T01:09:49.307Z,-0.33
2023-02-14T01:12:15.906Z,-0.32
2023-02-14T01:14:42.507Z,-0.22
2023-02-14T01:17:09.074Z,-0.24
2023-02-14T01:19:36.703Z,-0.31
2023-02-14T01:22:03.280Z,-0.24
2023-02-14T01:24:29.904Z,-0.18
2023-02-14T01:26:56.497Z,0.03
2023-02-14T01:29:23.097Z,0.23
2023-02-14T01:31:52.243Z,0.26
2023-02-14T01:34:18.989Z,0.03
2023-02-14T01:36:46.815Z,-0.13
2023-02-14T01:40:00.598Z,-0.11
2023-02-14T01:43:08.421Z,-0.18
2023-02-14T01:48:47.398Z,-0.28
2023-02-14T01:51:14.387Z,-0.35
2023-02-14T01:53:40.986Z,-0.24
2023-02-14T01:56:27.249Z,-0.27
2023-02-14T01:59:06.302Z,-0.28
2023-02-14T02:01:32.935Z,-0.22
2023-02-14T02:04:04.577Z,-0.39
2023-02-14T02:06:51.103Z,-0.54
2023-02-14T02:09:23.488Z,-0.37
2023-02-14T02:11:50.128Z,-0.40
2023-02-14T02:14:18.517Z,-0.36
2023-02-14T02:17:03.666Z,-0.34
2023-02-14T02:20:01.180Z,-0.39
2023-02-14T02:22:51.281Z,-0.29
2023-02-14T02:25:36.678Z,-0.24
2023-02-14T02:28:09.260Z,-0.16
2023-02-14T02:31:03.924Z,-0.10
2023-02-14T02:33:59.678Z,-0.07
2023-02-14T02:36:52.290Z,-0.09
2023-02-14T02:39:27.699Z,0.05
2023-02-14T02:42:06.146Z,0.10
2023-02-14T02:44:51.571Z,0.06
2023-02-14T02:47:29.933Z,-0.03
2023-02-14T02:50:17.766Z,-0.18
2023-02-14T02:53:22.479Z,0.00
2023-02-14T02:56:20.375Z,0.07
2023-02-14T02:58:50.350Z,0.31
2023-02-14T03:01:20.781Z,0.02
2023-02-14T03:04:08.609Z,0.14
2023-02-14T03:06:35.226Z,0.09
2023-02-14T03:09:30.884Z,-0.04
2023-02-14T03:12:14.368Z,0.03
2023-02-14T03:15:10.276Z,-0.13
2023-02-14T03:18:12.388Z,-0.06
2023-02-14T03:20:49.746Z,0.17
2023-02-14T03:23:21.796Z,0.31
2023-02-14T03:26:00.587Z,0.19
2023-02-14T03:28:56.089Z,0.03
2023-02-14T03:31:47.188Z,0.08
2023-02-14T03:34:36.809Z,0.06
2023-02-14T03:37:06.319Z,-0.14
2023-02-14T03:39:45.788Z,-0.01
2023-02-14T03:42:34.145Z,0.10
2023-02-14T03:45:00.846Z,-0.15
2023-02-14T03:47:30.371Z,-0.10
2023-02-14T03:49:59.533Z,-0.07
2023-02-14T03:52:26.164Z,-0.14
2023-02-14T03:54:53.101Z,-0.14
2023-02-14T03:57:35.445Z,-0.10
2023-02-14T04:00:02.089Z,-0.06
2023-02-14T04:02:44.309Z,-0.13
2023-02-14T04:05:19.475Z,-0.14
2023-02-14T04:07:48.096Z,-0.09
2023-02-14T04:10:15.054Z,-0.20
2023-02-14T04:12:41.723Z,-0.15
2023-02-14T04:15:08.535Z,-0.07
2023-02-14T04:17:53.865Z,-0.10
2023-02-14T04:20:20.606Z,-0.14
2023-02-14T04:22:47.259Z,-0.19
2023-02-14T04:25:14.288Z,-0.21
2023-02-14T04:27:40.942Z,-0.20
2023-02-14T04:30:08.150Z,0.07
2023-02-14T04:32:38.090Z,0.09
2023-02-14T04:35:05.170Z,0.09
2023-02-14T04:37:31.829Z,0.09
2023-02-14T04:39:58.517Z,0.23
2023-02-14T04:42:25.148Z,-0.09
2023-02-14T04:44:51.841Z,0.09
2023-02-14T04:47:28.350Z,0.15
2023-02-14T04:49:54.969Z,0.12
2023-02-14T04:52:21.557Z,0.18
2023-02-14T04:54:48.834Z,0.02
2023-02-14T04:57:15.421Z,-0.09
2023-02-14T04:59:42.361Z,-0.25
2023-02-14T05:02:14.255Z,-0.16
2023-02-14T05:05:02.947Z,-0.34
2023-02-14T05:07:41.051Z,-0.20
2023-02-14T05:10:16.935Z,-0.34
2023-02-14T05:12:44.140Z,-0.25
2023-02-14T05:15:10.776Z,-0.37
2023-02-14T05:17:37.385Z,-0.44
2023-02-14T05:20:07.155Z,-0.42
2023-02-14T05:22:33.801Z,-0.31
2023-02-14T05:25:00.450Z,-0.16
2023-02-14T05:27:27.062Z,-0.32
2023-02-14T05:29:53.845Z,-0.38
2023-02-14T05:32:20.641Z,-0.45
2023-02-14T05:34:47.287Z,-0.63
2023-02-14T05:37:13.858Z,-0.60
2023-02-14T05:39:40.466Z,-0.53
2023-02-14T05:42:07.087Z,-0.49
2023-02-14T05:44:33.703Z,-0.44
2023-02-14T05:47:00.290Z,-0.33
2023-02-14T05:49:26.920Z,-0.34
2023-02-14T05:51:53.509Z,-0.33
2023-02-14T05:54:20.118Z,-0.19
2023-02-14T05:56:46.764Z,-0.63
2023-02-14T05:59:14.579Z,-0.84
2023-02-14T06:01:41.202Z,-0.64
2023-02-14T06:04:07.880Z,-0.39
2023-02-14T06:06:36.591Z,-0.28
2023-02-14T06:09:03.438Z,-0.09
2023-02-14T06:11:30.042Z,-0.07
2023-02-14T06:13:56.904Z,-0.20
2023-02-14T06:16:23.582Z,-0.32
2023-02-14T06:18:50.161Z,-0.41
2023-02-14T06:21:16.764Z,-0.69
2023-02-14T06:23:43.333Z,-0.62
2023-02-14T06:26:10.022Z,-0.43
2023-02-14T06:28:36.645Z,-0.39
2023-02-14T06:31:03.690Z,-0.22
2023-02-14T06:33:30.581Z,-0.33
2023-02-14T06:35:57.148Z,-0.68
2023-02-14T06:38:23.829Z,-0.72
2023-02-14T06:40:50.750Z,-0.59
2023-02-14T06:43:17.333Z,-0.63
2023-02-14T06:45:43.949Z,-0.80
2023-02-14T06:48:10.618Z,-0.92
2023-02-14T06:50:37.292Z,-0.84
2023-02-14T06:53:03.943Z,-0.73
2023-02-14T06:55:30.533Z,-0.77
2023-02-14T06:57:57.156Z,-0.71
2023-02-14T07:00:23.746Z,-0.70
2023-02-14T07:02:50.399Z,-0.62
2023-02-14T07:05:18.944Z,-0.56
2023-02-14T07:07:45.865Z,-0.55
2023-02-14T07:10:12.486Z,-0.43
2023-02-14T07:12:41.907Z,-0.18
2023-02-14T07:15:09.978Z,-0.17
2023-02-14T07:17:36.799Z,-0.15
2023-02-14T07:20:09.168Z,-0.18
2023-02-14T07:22:35.991Z,0.09
2023-02-14T07:25:02.546Z,0.24
2023-02-14T07:27:29.130Z,0.28
2023-02-14T07:29:55.750Z,0.44
2023-02-14T07:32:23.537Z,0.38
2023-02-14T07:34:50.735Z,0.25
2023-02-14T07:37:17.809Z,0.20
2023-02-14T07:39:44.790Z,0.29
2023-02-14T07:42:11.740Z,0.66
2023-02-14T07:44:41.114Z,0.46
2023-02-14T07:47:08.137Z,0.55
2023-02-14T07:49:34.785Z,0.84
2023-02-14T07:52:01.494Z,1.03
2023-02-14T07:54:28.093Z,1.23
2023-02-14T07:56:54.684Z,1.15
2023-02-14T07:59:21.327Z,1.21
2023-02-14T08:01:47.926Z,1.27
2023-02-14T08:04:14.571Z,1.23
2023-02-14T08:06:41.803Z,1.23
2023-02-14T08:09:10.041Z,1.39
2023-02-14T08:11:55.760Z,1.44
2023-02-14T08:14:22.625Z,1.43
2023-02-14T08:16:49.190Z,1.41
2023-02-14T08:19:16.080Z,1.54
2023-02-14T08:21:42.666Z,1.69
2023-02-14T08:24:09.296Z,1.76
2023-02-14T08:26:36.772Z,1.88
2023-02-14T08:29:03.354Z,1.89
2023-02-14T08:31:35.957Z,1.94
2023-02-14T08:34:06.784Z,1.90
2023-02-14T08:36:34.222Z,1.65
2023-02-14T08:39:01.254Z,1.67
2023-02-14T08:41:27.818Z,1.76
2023-02-14T08:43:54.422Z,1.81
2023-02-14T08:46:21.048Z,2.04
2023-02-14T08:48:49.674Z,2.00
2023-02-14T08:51:16.529Z,1.74
2023-02-14T08:53:43.470Z,2.02
2023-02-14T08:56:11.638Z,2.23
2023-02-14T08:58:38.773Z,2.14
2023-02-14T09:01:12.988Z,2.13
2023-02-14T09:03:39.962Z,2.80
2023-02-14T09:06:11.868Z,2.60
2023-02-14T09:08:38.851Z,2.63
2023-02-14T09:11:14.160Z,3.01
2023-02-14T09:13:44.228Z,2.94
2023-02-14T09:16:11.668Z,4.14
2023-02-14T09:18:38.465Z,4.95
2023-02-14T09:21:09.429Z,3.92
2023-02-14T09:23:36.178Z,4.48
2023-02-14T09:26:04.411Z,5.81
2023-02-14T09:28:31.077Z,4.82
2023-02-14T09:30:58.116Z,6.41
2023-02-14T09:33:28.156Z,5.87
2023-02-14T09:35:54.848Z,6.11
2023-02-14T09:38:21.515Z,6.87
2023-02-14T09:40:50.196Z,7.86
2023-02-14T09:43:19.706Z,7.32
2023-02-14T09:45:47.804Z,6.32
2023-02-14T09:48:26.101Z,6.52
2023-02-14T09:50:58.886Z,5.87
2023-02-14T09:53:26.472Z,6.84
2023-02-14T09:56:02.180Z,6.34
2023-02-14T09:58:36.413Z,7.77
2023-02-14T10:01:05.577Z,8.02
2023-02-14T10:03:35.609Z,8.41
2023-02-14T10:06:10.260Z,7.21
2023-02-14T10:08:47.132Z,8.23
2023-02-14T10:11:17.156Z,6.47
2023-02-14T10:13:46.192Z,6.86
2023-02-14T10:16:27.127Z,6.93
2023-02-14T10:18:56.871Z,7.64
2023-02-14T10:21:41.862Z,7.71
2023-02-14T10:24:16.374Z,8.42
2023-02-14T10:26:42.926Z,8.55
2023-02-14T10:29:11.622Z,8.54
2023-02-14T10:31:43.492Z,7.45
2023-02-14T10:34:36.233Z,7.90
2023-02-14T10:37:06.884Z,7.31
2023-02-14T10:39:41.614Z,7.26
2023-02-14T10:42:14.746Z,7.46
2023-02-14T10:44:41.159Z,10.05
2023-02-14T10:47:26.362Z,8.64
2023-02-14T10:50:11.833Z,7.97
2023-02-14T10:52:50.110Z,9.64
2023-02-14T10:55:31.511Z,10.92
2023-02-14T10:57:59.991Z,9.94
2023-02-14T11:00:28.274Z,9.62
2023-02-14T11:02:58.209Z,8.20
2023-02-14T11:05:38.227Z,9.20
2023-02-14T11:08:13.985Z,10.92
2023-02-14T11:10:40.466Z,11.63
2023-02-14T11:13:26.165Z,9.03
2023-02-14T11:15:54.110Z,9.68
2023-02-14T11:18:21.866Z,10.51
2023-02-14T11:21:02.107Z,9.27
2023-02-14T11:23:31.591Z,9.64
2023-02-14T11:26:00.329Z,10.04
2023-02-14T11:28:27.093Z,9.31
2023-02-14T11:30:53.709Z,10.11
2023-02-14T11:33:32.583Z,10.24
2023-02-14T11:35:59.078Z,9.26
2023-02-14T11:38:27.523Z,9.12
2023-02-14T11:40:55.161Z,8.34
2023-02-14T11:43:30.805Z,8.28
2023-02-14T11:46:15.501Z,8.94
2023-02-14T11:48:58.456Z,9.15
2023-02-14T11:51:28.596Z,8.75
2023-02-14T11:53:56.303Z,9.28
2023-02-14T11:56:23.288Z,10.05
2023-02-14T11:58:50.943Z,9.25
2023-02-14T12:01:24.693Z,9.18
2023-02-14T12:03:51.157Z,8.90
2023-02-14T12:06:30.269Z,9.52
2023-02-14T12:09:15.681Z,9.30
2023-02-14T12:11:42.223Z,9.39
2023-02-14T12:14:12.301Z,9.70
2023-02-14T12:16:41.030Z,9.70
2023-02-14T12:19:10.997Z,10.21
2023-02-14T12:25:37.047Z,9.43
2023-02-14T12:28:05.478Z,9.88
2023-02-14T12:30:32.628Z,9.59
2023-02-14T12:32:59.113Z,9.36
2023-02-14T12:35:34.662Z,10.12
2023-02-14T12:38:17.264Z,9.50
2023-02-14T12:40:51.794Z,9.72
2023-02-14T12:43:21.215Z,9.16
2023-02-14T12:45:48.985Z,9.47
2023-02-14T12:48:34.314Z,9.44
2023-02-14T12:51:01.201Z,9.48
2023-02-14T12:53:48.785Z,10.54
2023-02-14T12:56:27.682Z,9.90
2023-02-14T12:59:03.611Z,9.83
2023-02-14T13:01:38.738Z,10.31
2023-02-14T13:04:21.075Z,10.54
2023-02-14T13:06:51.802Z,9.61
2023-02-14T13:09:18.227Z,10.01
2023-02-14T13:11:48.741Z,10.57
2023-02-14T13:14:31.059Z,10.29
2023-02-14T13:16:59.796Z,9.76
2023-02-14T13:19:29.846Z,9.45
2023-02-14T13:21:58.249Z,10.05
2023-02-14T13:24:27.458Z,11.00
2023-02-14T13:26:55.518Z,10.67
2023-02-14T13:29:25.889Z,11.30
2023-02-14T13:31:54.307Z,10.91
2023-02-14T13:34:23.845Z,11.28
2023-02-14T13:36:50.312Z,11.61
2023-02-14T13:39:36.205Z,11.77
2023-02-14T13:42:05.149Z,10.67
2023-02-14T13:44:50.407Z,10.36
2023-02-14T13:47:23.367Z,10.96
2023-02-14T13:49:49.785Z,10.55
2023-02-14T13:52:36.480Z,10.28
2023-02-14T13:55:03.332Z,9.93
2023-02-14T13:57:31.706Z,10.06
2023-02-14T14:00:16.431Z,10.15
2023-02-14T14:02:49.240Z,10.18
2023-02-14T14:05:44.818Z,10.30
2023-02-14T14:08:17.711Z,9.99
2023-02-14T14:10:47.688Z,10.12
2023-02-14T14:13:32.809Z,10.01
2023-02-14T14:16:18.123Z,10.01
2023-02-14T14:18:44.593Z,10.57
2023-02-14T14:21:24.354Z,10.95
2023-02-14T14:24:02.907Z,10.26
2023-02-14T14:27:01.710Z,10.50
2023-02-14T14:29:38.429Z,10.09
2023-02-14T14:32:11.817Z,10.22
2023-02-14T14:34:38.427Z,10.53
2023-02-14T14:37:10.045Z,10.72
2023-02-14T14:39:38.207Z,10.91
2023-02-14T14:42:06.935Z,10.54
2023-02-14T14:44:35.701Z,10.69
2023-02-14T14:47:02.233Z,11.08
2023-02-14T14:49:28.779Z,10.50
2023-02-14T14:51:55.578Z,10.23
2023-02-14T14:54:22.696Z,10.98
2023-02-14T14:57:01.508Z,11.11
2023-02-14T14:59:35.096Z,10.15
2023-02-14T15:02:02.256Z,10.72
2023-02-14T15:04:32.620Z,10.82
2023-02-14T15:07:17.338Z,10.42
2023-02-14T15:09:44.642Z,10.27
2023-02-14T15:12:30.190Z,9.90
2023-02-14T15:14:56.671Z,10.24
2023-02-14T15:17:26.886Z,9.99
2023-02-14T15:19:54.845Z,9.76
2023-02-14T15:22:22.306Z,9.53
2023-02-14T15:24:48.812Z,9.80
2023-02-14T15:27:19.386Z,9.58
2023-02-14T15:29:59.206Z,9.31
2023-02-14T15:32:25.992Z,9.13
2023-02-14T15:34:52.442Z,8.99
2023-02-14T15:37:19.160Z,8.90
2023-02-14T15:39:46.868Z,8.89
2023-02-14T15:46:26.362Z,8.50
2023-02-14T15:48:53.043Z,8.33
2023-02-14T15:51:20.302Z,8.31
2023-02-14T15:53:58.299Z,8.12
2023-02-14T15:56:28.057Z,8.02
2023-02-14T15:59:20.918Z,8.00
2023-02-14T16:01:51.639Z,7.87
2023-02-14T16:04:21.832Z,7.80
2023-02-14T16:06:50.180Z,8.02
2023-02-14T16:09:26.597Z,7.95
2023-02-14T16:11:53.717Z,7.86
2023-02-14T16:14:21.250Z,7.77
2023-02-14T16:17:04.161Z,7.50
2023-02-14T16:19:31.397Z,7.40
2023-02-14T16:21:57.925Z,7.51
2023-02-14T16:24:24.421Z,7.42
2023-02-14T16:26:50.924Z,7.23
2023-02-14T16:29:17.937Z,6.91
2023-02-14T16:32:15.091Z,6.69
2023-02-14T16:34:41.225Z,6.65
2023-02-14T16:37:08.658Z,6.36
2023-02-14T16:39:35.174Z,6.21
2023-02-14T16:42:01.634Z,6.92
2023-02-14T16:44:28.182Z,6.86
2023-02-14T16:46:54.647Z,6.76
2023-02-14T16:49:23.028Z,6.89
2023-02-14T16:51:52.060Z,6.92
2023-02-14T16:54:19.154Z,6.99
2023-02-14T16:56:50.193Z,7.02
2023-02-14T16:59:16.740Z,6.96
2023-02-14T17:01:43.760Z,6.69
2023-02-14T17:04:10.442Z,6.08
2023-02-14T17:06:40.345Z,6.51
2023-02-14T17:09:07.332Z,6.37
2023-02-14T17:11:38.442Z,6.09
2023-02-14T17:14:04.997Z,5.97
2023-02-14T17:16:31.661Z,6.05
2023-02-14T17:18:58.141Z,5.57
2023-02-14T17:21:27.347Z,5.55
2023-02-14T17:23:53.893Z,5.63
2023-02-14T17:26:20.429Z,5.52
2023-02-14T17:28:47.330Z,5.27
2023-02-14T17:31:13.983Z,5.29
2023-02-14T17:33:40.714Z,5.53
2023-02-14T17:36:09.112Z,5.63
2023-02-14T17:38:36.741Z,5.21
2023-02-14T17:41:20.407Z,5.00
2023-02-14T17:43:46.928Z,4.75
2023-02-14T17:46:14.328Z,4.66
2023-02-14T17:48:41.110Z,3.88
2023-02-14T17:51:08.120Z,4.13
2023-02-14T17:53:34.637Z,4.58
2023-02-14T17:56:08.659Z,4.43
2023-02-14T17:58:35.784Z,4.17
2023-02-14T18:01:05.385Z,3.65
2023-02-14T18:03:32.126Z,4.05
2023-02-14T18:05:58.977Z,3.91
2023-02-14T18:08:32.545Z,3.71
2023-02-14T18:10:59.223Z,4.02
2023-02-14T18:13:25.855Z,4.12
2023-02-14T18:15:54.918Z,3.94
2023-02-14T18:18:21.455Z,3.76
2023-02-14T18:20:54.165Z,4.06
2023-02-14T18:23:20.971Z,4.30
2023-02-14T18:25:58.294Z,4.40
2023-02-14T18:28:25.034Z,4.24
2023-02-14T18:30:54.143Z,4.31
2023-02-14T18:33:20.655Z,4.12
2023-02-14T18:35:47.126Z,4.22
2023-02-14T18:38:13.830Z,3.61
2023-02-14T18:40:41.229Z,3.72
2023-02-14T18:43:07.713Z,4.07
2023-02-14T18:45:37.551Z,4.08
2023-02-14T18:48:04.459Z,3.80
2023-02-14T18:50:30.963Z,4.05
2023-02-14T18:52:57.405Z,3.99
2023-02-14T18:55:24.877Z,3.94
2023-02-14T18:57:51.307Z,3.72
2023-02-14T19:00:18.135Z,3.75
2023-02-14T19:02:45.169Z,3.89
2023-02-14T19:05:11.764Z,4.01
2023-02-14T19:07:38.303Z,3.65
2023-02-14T19:10:05.039Z,3.52
2023-02-14T19:12:33.260Z,3.69
2023-02-14T19:15:00.293Z,3.46
2023-02-14T19:17:26.819Z,3.15
2023-02-14T19:19:56.494Z,3.13
2023-02-14T19:22:23.029Z,3.18
2023-02-14T19:24:52.983Z,3.06
2023-02-14T19:27:21.528Z,3.10
2023-02-14T19:29:48.334Z,3.40
2023-02-14T19:32:14.932Z,3.22
2023-02-14T19:34:41.501Z,3.24
2023-02-14T19:37:07.993Z,3.52
2023-02-14T19:39:34.523Z,3.44
2023-02-14T19:42:01.026Z,3.59
2023-02-14T19:44:29.497Z,3.53
2023-02-14T19:46:56.751Z,3.31
2023-02-14T19:49:23.422Z,3.03
2023-02-14T19:51:51.205Z,3.16
2023-02-14T19:54:17.848Z,3.10
2023-02-14T19:56:44.821Z,2.64
2023-02-14T19:59:16.439Z,2.61
2023-02-14T20:01:45.819Z,2.49
2023-02-14T20:04:14.912Z,2.52
2023-02-14T20:06:41.819Z,2.56
2023-02-14T20:09:08.814Z,2.50
2023-02-14T20:11:36.467Z,2.52
2023-02-14T20:14:03.148Z,2.29
2023-02-14T20:16:30.173Z,2.43
2023-02-14T20:18:58.908Z,2.72
2023-02-14T20:21:28.162Z,3.03
2023-02-14T20:23:56.680Z,3.11
2023-02-14T20:26:23.173Z,2.79
2023-02-14T20:28:50.272Z,2.67
2023-02-14T20:31:19.411Z,2.61
2023-02-14T20:33:51.600Z,2.52
2023-02-14T20:36:18.348Z,2.31
2023-02-14T20:38:45.119Z,2.34
2023-02-14T20:41:12.451Z,2.31
2023-02-14T20:43:39.204Z,2.27
2023-02-14T20:46:06.548Z,2.19
2023-02-14T20:48:33.263Z,2.21
2023-02-14T20:51:08.913Z,2.23
2023-02-14T20:53:35.930Z,2.08
2023-02-14T20:56:02.721Z,1.98
2023-02-14T20:58:32.581Z,1.96
2023-02-14T21:01:25.612Z,1.98
2023-02-14T21:03:52.708Z,1.86
2023-02-14T21:06:19.855Z,1.88
2023-02-14T21:08:46.716Z,1.81
2023-02-14T21:11:13.692Z,1.85
2023-02-14T21:13:40.358Z,1.63
2023-02-14T21:16:07.925Z,1.60
2023-02-14T21:18:34.656Z,1.59
2023-02-14T21:21:30.184Z,1.59
2023-02-14T21:23:56.732Z,1.80
2023-02-14T21:26:23.338Z,1.83
2023-02-14T21:28:49.807Z,2.14
2023-02-14T21:31:17.948Z,2.05
2023-02-14T21:33:44.482Z,1.83
2023-02-14T21:36:11.925Z,1.83
2023-02-14T21:38:38.672Z,1.91
2023-02-14T21:41:09.065Z,2.08
2023-02-14T21:43:36.525Z,2.09
2023-02-14T21:46:28.600Z,2.19
2023-02-14T21:49:23.423Z,2.35
2023-02-14T21:51:53.230Z,1.80
2023-02-14T21:54:24.095Z,1.73
2023-02-14T21:56:50.582Z,1.65
2023-02-14T21:59:17.056Z,1.54
2023-02-14T22:01:43.669Z,1.39
2023-02-14T22:04:10.624Z,1.22
2023-02-14T22:06:37.521Z,1.38
2023-02-14T22:09:11.103Z,1.44
2023-02-14T22:11:37.656Z,1.48
2023-02-14T22:14:04.290Z,1.38
2023-02-14T22:16:30.942Z,1.24
2023-02-14T22:19:30.569Z,1.04
2023-02-14T22:21:57.532Z,0.92
2023-02-14T22:24:24.084Z,1.11
2023-02-14T22:26:54.423Z,1.26
2023-02-14T22:29:20.959Z,0.94
2023-02-14T22:31:47.521Z,0.84
2023-02-14T22:34:16.835Z,1.07
2023-02-14T22:36:49.092Z,1.09
2023-02-14T22:39:18.324Z,1.11
2023-02-14T22:41:45.337Z,1.28
2023-02-14T22:44:12.301Z,1.00
2023-02-14T22:46:43.172Z,1.01
2023-02-14T22:49:09.716Z,1.26
2023-02-14T22:51:39.541Z,1.01
2023-02-14T22:54:12.291Z,0.95
2023-02-14T22:56:45.672Z,1.07
2023-02-14T22:59:14.865Z,1.04
2023-02-14T23:01:41.386Z,1.27
2023-02-14T23:04:07.918Z,1.32
2023-02-14T23:06:34.645Z,0.94
2023-02-14T23:09:01.340Z,0.86
2023-02-14T23:11:28.812Z,0.94
2023-02-14T23:14:49.861Z,1.03
2023-02-14T23:17:35.503Z,1.04
2023-02-14T23:20:20.653Z,0.85
2023-02-14T23:22:47.211Z,0.98
2023-02-14T23:25:13.663Z,1.00
2023-02-14T23:27:41.305Z,1.26
2023-02-14T23:30:27.907Z,1.10
2023-02-14T23:35:43.068Z,1.32
2023-02-14T23:38:13.032Z,0.90
2023-02-14T23:40:58.433Z,1.03
2023-02-14T23:43:24.883Z,0.94
2023-02-14T23:45:52.465Z,1.10
2023-02-14T23:48:21.398Z,1.02
2023-02-14T23:50:47.899Z,1.15
2023-02-14T23:53:15.322Z,1.13
2023-02-14T23:58:45.880Z,0.99
